sensor_id;sensor_type;location;lat;lon;timestamp;pressure;altitude;pressure_sealevel;temperature;humidity
57600;BME280;43426;43.594;24.334;2024-02-14T00:01:08;100862.25;;;7.05;100.00
57600;BME280;43426;43.594;24.334;2024-02-14T00:03:34;100810.66;;;6.83;100.00
57600;BME280;43426;43.594;24.334;2024-02-14T00:06:00;100839.41;;;7.01;100.00
57600;BME280;43426;43.594;24.334;2024-02-14T00:08:26;100859.69;;;7.13;100.00
57600;BME280;43426;43.594;24.334;2024-02-14T00:10:51;100867.72;;;7.13;100.00
57600;BME280;43426;43.594;24.334;2024-02-14T00:13:17;100841.94;;;7.02;100.00
57600;BME280;43426;43.594;24.334;2024-02-14T00:15:45;100862.81;;;7.08;100.00
57600;BME280;43426;43.594;24.334;2024-02-14T00:18:12;100848.00;;;7.04;100.00
57600;BME280;43426;43.594;24.334;2024-02-14T00:20:37;100878.06;;;7.18;100.00
57600;BME280;43426;43.594;24.334;2024-02-14T00:23:04;100824.06;;;6.83;100.00
57600;BME280;43426;43.594;24.334;2024-02-14T00:25:30;100849.72;;;6.95;100.00
57600;BME280;43426;43.594;24.334;2024-02-14T00:27:55;100868.50;;;6.95;100.00
57600;BME280;43426;43.594;24.334;2024-02-14T00:30:21;100833.69;;;6.76;100.00
57600;BME280;43426;43.594;24.334;2024-02-14T00:32:48;100860.03;;;6.90;100.00
57600;BME280;43426;43.594;24.334;2024-02-14T00:35:14;100852.28;;;6.87;100.00
57600;BME280;43426;43.594;24.334;2024-02-14T00:37:39;100897.41;;;7.11;100.00
57600;BME280;43426;43.594;24.334;2024-02-14T00:40:05;100879.66;;;7.01;100.00
57600;BME280;43426;43.594;24.334;2024-02-14T00:42:31;100896.44;;;7.03;100.00
57600;BME280;43426;43.594;24.334;2024-02-14T00:44:56;100876.56;;;6.95;100.00
57600;BME280;43426;43.594;24.334;2024-02-14T00:47:22;100882.63;;;6.88;100.00
57600;BME280;43426;43.594;24.334;2024-02-14T00:49:47;100887.28;;;6.95;100.00
57600;BME280;43426;43.594;24.334;2024-02-14T00:52:13;100890.25;;;6.92;100.00
57600;BME280;43426;43.594;24.334;2024-02-14T00:54:38;100901.38;;;6.97;100.00
57600;BME280;43426;43.594;24.334;2024-02-14T00:57:03;100917.31;;;6.99;100.00
57600;BME280;43426;43.594;24.334;2024-02-14T00:59:30;100867.00;;;6.63;100.00
57600;BME280;43426;43.594;24.334;2024-02-14T01:01:55;100884.88;;;6.73;100.00
57600;BME280;43426;43.594;24.334;2024-02-14T01:04:21;100892.38;;;6.79;100.00
57600;BME280;43426;43.594;24.334;2024-02-14T01:06:46;100897.75;;;6.79;100.00
57600;BME280;43426;43.594;24.334;2024-02-14T01:09:13;100920.75;;;6.91;100.00
57600;BME280;43426;43.594;24.334;2024-02-14T01:11:39;100918.47;;;6.87;100.00
57600;BME280;43426;43.594;24.334;2024-02-14T01:14:04;100895.63;;;6.73;100.00
57600;BME280;43426;43.594;24.334;2024-02-14T01:16:29;100916.22;;;6.82;100.00
57600;BME280;43426;43.594;24.334;2024-02-14T01:18:55;100897.91;;;6.68;100.00
57600;BME280;43426;43.594;24.334;2024-02-14T01:21:22;100895.91;;;6.70;100.00
57600;BME280;43426;43.594;24.334;2024-02-14T01:23:47;100918.91;;;6.82;100.00
57600;BME280;43426;43.594;24.334;2024-02-14T01:26:13;100895.78;;;6.52;100.00
57600;BME280;43426;43.594;24.334;2024-02-14T01:28:39;100929.50;;;6.74;100.00
57600;BME280;43426;43.594;24.334;2024-02-14T01:31:05;100868.81;;;6.34;100.00
57600;BME280;43426;43.594;24.334;2024-02-14T01:33:30;100936.28;;;6.68;100.00
57600;BME280;43426;43.594;24.334;2024-02-14T01:35:56;100907.06;;;6.45;100.00
57600;BME280;43426;43.594;24.334;2024-02-14T01:38:23;100905.38;;;6.44;100.00
57600;BME280;43426;43.594;24.334;2024-02-14T01:40:48;100898.72;;;6.39;100.00
57600;BME280;43426;43.594;24.334;2024-02-14T01:43:14;100929.50;;;6.54;100.00
57600;BME280;43426;43.594;24.334;2024-02-14T01:45:40;100940.06;;;6.56;100.00
57600;BME280;43426;43.594;24.334;2024-02-14T01:48:06;100918.19;;;6.31;100.00
57600;BME280;43426;43.594;24.334;2024-02-14T01:50:32;100940.50;;;6.51;100.00
57600;BME280;43426;43.594;24.334;2024-02-14T01:52:58;100942.31;;;6.41;100.00
57600;BME280;43426;43.594;24.334;2024-02-14T01:55:26;100893.50;;;6.18;100.00
57600;BME280;43426;43.594;24.334;2024-02-14T01:57:53;100926.66;;;6.26;100.00
57600;BME280;43426;43.594;24.334;2024-02-14T02:00:19;100937.22;;;6.38;100.00
57600;BME280;43426;43.594;24.334;2024-02-14T02:02:45;100919.28;;;6.19;100.00
57600;BME280;43426;43.594;24.334;2024-02-14T02:05:12;100940.47;;;6.22;100.00
57600;BME280;43426;43.594;24.334;2024-02-14T02:07:39;100956.41;;;6.33;100.00
57600;BME280;43426;43.594;24.334;2024-02-14T02:10:09;100938.63;;;6.22;100.00
57600;BME280;43426;43.594;24.334;2024-02-14T02:12:35;100914.34;;;6.14;100.00
57600;BME280;43426;43.594;24.334;2024-02-14T02:15:07;100945.25;;;6.28;100.00
57600;BME280;43426;43.594;24.334;2024-02-14T02:17:38;100953.16;;;6.29;100.00
57600;BME280;43426;43.594;24.334;2024-02-14T02:20:04;100974.34;;;6.42;100.00
57600;BME280;43426;43.594;24.334;2024-02-14T02:22:32;100976.47;;;6.39;100.00
57600;BME280;43426;43.594;24.334;2024-02-14T02:25:01;100986.06;;;6.41;100.00
57600;BME280;43426;43.594;24.334;2024-02-14T02:27:27;100994.66;;;6.45;100.00
57600;BME280;43426;43.594;24.334;2024-02-14T02:29:52;100985.47;;;6.38;100.00
57600;BME280;43426;43.594;24.334;2024-02-14T02:32:18;100987.84;;;6.31;100.00
57600;BME280;43426;43.594;24.334;2024-02-14T02:34:43;100969.25;;;6.29;100.00
57600;BME280;43426;43.594;24.334;2024-02-14T02:37:11;100999.75;;;6.48;100.00
57600;BME280;43426;43.594;24.334;2024-02-14T02:39:37;100998.03;;;6.37;100.00
57600;BME280;43426;43.594;24.334;2024-02-14T02:42:03;100980.56;;;6.43;100.00
57600;BME280;43426;43.594;24.334;2024-02-14T02:44:29;100979.13;;;6.39;100.00
57600;BME280;43426;43.594;24.334;2024-02-14T02:46:54;101007.97;;;6.56;100.00
57600;BME280;43426;43.594;24.334;2024-02-14T02:49:21;101017.97;;;6.64;100.00
57600;BME280;43426;43.594;24.334;2024-02-14T02:51:47;101023.66;;;6.71;100.00
57600;BME280;43426;43.594;24.334;2024-02-14T02:54:13;101013.97;;;6.39;100.00
57600;BME280;43426;43.594;24.334;2024-02-14T02:56:38;100999.81;;;6.17;100.00
57600;BME280;43426;43.594;24.334;2024-02-14T02:59:06;101036.16;;;6.60;100.00
57600;BME280;43426;43.594;24.334;2024-02-14T03:01:35;101054.81;;;6.62;100.00
57600;BME280;43426;43.594;24.334;2024-02-14T03:04:01;101026.81;;;6.45;100.00
57600;BME280;43426;43.594;24.334;2024-02-14T03:06:27;101026.16;;;6.62;100.00
57600;BME280;43426;43.594;24.334;2024-02-14T03:08:52;101020.94;;;6.51;100.00
57600;BME280;43426;43.594;24.334;2024-02-14T03:11:20;101028.94;;;6.41;100.00
57600;BME280;43426;43.594;24.334;2024-02-14T03:13:45;101001.13;;;6.33;100.00
57600;BME280;43426;43.594;24.334;2024-02-14T03:16:14;101044.50;;;6.57;100.00
57600;BME280;43426;43.594;24.334;2024-02-14T03:18:40;101056.66;;;6.81;100.00
57600;BME280;43426;43.594;24.334;2024-02-14T03:21:05;101059.91;;;6.65;100.00
57600;BME280;43426;43.594;24.334;2024-02-14T03:23:31;101059.03;;;6.64;100.00
57600;BME280;43426;43.594;24.334;2024-02-14T03:25:57;101057.75;;;6.59;100.00
57600;BME280;43426;43.594;24.334;2024-02-14T03:28:22;101035.88;;;6.44;100.00
57600;BME280;43426;43.594;24.334;2024-02-14T03:30:48;101040.50;;;6.42;100.00
57600;BME280;43426;43.594;24.334;2024-02-14T03:33:14;101052.13;;;6.62;100.00
57600;BME280;43426;43.594;24.334;2024-02-14T03:35:40;101048.13;;;6.46;100.00
57600;BME280;43426;43.594;24.334;2024-02-14T03:38:06;101082.75;;;6.59;100.00
57600;BME280;43426;43.594;24.334;2024-02-14T03:40:34;101083.56;;;6.50;100.00
57600;BME280;43426;43.594;24.334;2024-02-14T03:42:59;101086.97;;;6.52;100.00
57600;BME280;43426;43.594;24.334;2024-02-14T03:45:25;101064.00;;;6.28;100.00
57600;BME280;43426;43.594;24.334;2024-02-14T03:47:50;101056.06;;;6.17;100.00
57600;BME280;43426;43.594;24.334;2024-02-14T03:50:16;101094.38;;;6.39;100.00
57600;BME280;43426;43.594;24.334;2024-02-14T03:52:41;101064.16;;;6.27;100.00
57600;BME280;43426;43.594;24.334;2024-02-14T03:55:10;101093.00;;;6.44;100.00
57600;BME280;43426;43.594;24.334;2024-02-14T03:57:38;101099.34;;;6.43;100.00
57600;BME280;43426;43.594;24.334;2024-02-14T04:00:04;101102.59;;;6.47;100.00
57600;BME280;43426;43.594;24.334;2024-02-14T04:02:33;101111.53;;;6.57;100.00
57600;BME280;43426;43.594;24.334;2024-02-14T04:05:00;101093.97;;;6.43;100.00
57600;BME280;43426;43.594;24.334;2024-02-14T04:07:27;101093.84;;;6.45;100.00
57600;BME280;43426;43.594;24.334;2024-02-14T04:09:53;101103.31;;;6.49;100.00
57600;BME280;43426;43.594;24.334;2024-02-14T04:12:18;101116.38;;;6.42;100.00
57600;BME280;43426;43.594;24.334;2024-02-14T04:14:44;101098.97;;;6.27;100.00
57600;BME280;43426;43.594;24.334;2024-02-14T04:17:09;101103.41;;;6.38;100.00
57600;BME280;43426;43.594;24.334;2024-02-14T04:19:37;101094.72;;;6.24;100.00
57600;BME280;43426;43.594;24.334;2024-02-14T04:22:03;101132.44;;;6.33;100.00
57600;BME280;43426;43.594;24.334;2024-02-14T04:24:28;101123.41;;;6.34;100.00
57600;BME280;43426;43.594;24.334;2024-02-14T04:26:54;101134.03;;;6.45;100.00
57600;BME280;43426;43.594;24.334;2024-02-14T04:29:21;101105.16;;;6.18;100.00
57600;BME280;43426;43.594;24.334;2024-02-14T04:31:47;101139.97;;;6.39;100.00
57600;BME280;43426;43.594;24.334;2024-02-14T04:34:12;101133.31;;;6.33;100.00
57600;BME280;43426;43.594;24.334;2024-02-14T04:36:40;101114.69;;;6.32;100.00
57600;BME280;43426;43.594;24.334;2024-02-14T04:39:06;101119.31;;;6.29;100.00
57600;BME280;43426;43.594;24.334;2024-02-14T04:41:32;101149.44;;;6.43;100.00
57600;BME280;43426;43.594;24.334;2024-02-14T04:44:03;101142.94;;;6.45;100.00
57600;BME280;43426;43.594;24.334;2024-02-14T04:46:32;101129.53;;;6.14;100.00
57600;BME280;43426;43.594;24.334;2024-02-14T04:48:57;101140.56;;;6.21;100.00
57600;BME280;43426;43.594;24.334;2024-02-14T04:51:23;101151.41;;;6.20;100.00
57600;BME280;43426;43.594;24.334;2024-02-14T04:53:48;101141.47;;;6.10;100.00
57600;BME280;43426;43.594;24.334;2024-02-14T04:56:14;101145.44;;;5.95;100.00
57600;BME280;43426;43.594;24.334;2024-02-14T04:58:39;101142.84;;;6.05;100.00
57600;BME280;43426;43.594;24.334;2024-02-14T05:01:05;101184.69;;;6.17;100.00
57600;BME280;43426;43.594;24.334;2024-02-14T05:03:32;101167.09;;;6.03;100.00
57600;BME280;43426;43.594;24.334;2024-02-14T05:05:57;101183.84;;;6.17;100.00
57600;BME280;43426;43.594;24.334;2024-02-14T05:08:24;101163.13;;;5.97;100.00
57600;BME280;43426;43.594;24.334;2024-02-14T05:10:49;101195.84;;;6.22;100.00
57600;BME280;43426;43.594;24.334;2024-02-14T05:13:15;101177.19;;;6.11;100.00
57600;BME280;43426;43.594;24.334;2024-02-14T05:15:42;101159.41;;;6.10;100.00
57600;BME280;43426;43.594;24.334;2024-02-14T05:18:07;101191.75;;;6.18;100.00
57600;BME280;43426;43.594;24.334;2024-02-14T05:20:32;101212.22;;;6.19;100.00
57600;BME280;43426;43.594;24.334;2024-02-14T05:22:58;101191.06;;;6.05;100.00
57600;BME280;43426;43.594;24.334;2024-02-14T05:25:23;101203.00;;;6.12;100.00
57600;BME280;43426;43.594;24.334;2024-02-14T05:27:49;101233.16;;;6.35;100.00
57600;BME280;43426;43.594;24.334;2024-02-14T05:30:14;101209.44;;;6.30;100.00
57600;BME280;43426;43.594;24.334;2024-02-14T05:32:40;101238.25;;;6.38;100.00
57600;BME280;43426;43.594;24.334;2024-02-14T05:35:06;101228.97;;;6.42;100.00
57600;BME280;43426;43.594;24.334;2024-02-14T05:37:31;101222.31;;;6.37;100.00
57600;BME280;43426;43.594;24.334;2024-02-14T05:39:57;101212.78;;;6.23;100.00
57600;BME280;43426;43.594;24.334;2024-02-14T05:42:23;101225.19;;;6.45;100.00
57600;BME280;43426;43.594;24.334;2024-02-14T05:44:48;101203.13;;;6.32;100.00
57600;BME280;43426;43.594;24.334;2024-02-14T05:47:14;101253.84;;;6.23;100.00
57600;BME280;43426;43.594;24.334;2024-02-14T05:49:40;101241.13;;;6.04;100.00
57600;BME280;43426;43.594;24.334;2024-02-14T05:52:06;101268.47;;;6.61;100.00
57600;BME280;43426;43.594;24.334;2024-02-14T05:54:32;101264.44;;;6.25;100.00
57600;BME280;43426;43.594;24.334;2024-02-14T05:56:57;101212.72;;;5.80;100.00
57600;BME280;43426;43.594;24.334;2024-02-14T05:59:23;101225.22;;;5.91;100.00
57600;BME280;43426;43.594;24.334;2024-02-14T06:01:49;101274.00;;;6.06;100.00
57600;BME280;43426;43.594;24.334;2024-02-14T06:04:14;101269.06;;;6.23;100.00
57600;BME280;43426;43.594;24.334;2024-02-14T06:06:40;101260.22;;;6.11;100.00
57600;BME280;43426;43.594;24.334;2024-02-14T06:09:05;101274.34;;;6.13;100.00
57600;BME280;43426;43.594;24.334;2024-02-14T06:11:35;101264.34;;;6.36;100.00
57600;BME280;43426;43.594;24.334;2024-02-14T06:14:01;101260.50;;;6.08;100.00
57600;BME280;43426;43.594;24.334;2024-02-14T06:16:26;101254.19;;;5.97;100.00
57600;BME280;43426;43.594;24.334;2024-02-14T06:18:52;101299.91;;;6.17;100.00
57600;BME280;43426;43.594;24.334;2024-02-14T06:21:17;101268.75;;;6.05;100.00
57600;BME280;43426;43.594;24.334;2024-02-14T06:23:44;101241.78;;;5.85;100.00
57600;BME280;43426;43.594;24.334;2024-02-14T06:26:12;101286.06;;;6.01;100.00
57600;BME280;43426;43.594;24.334;2024-02-14T06:28:37;101278.78;;;5.91;100.00
57600;BME280;43426;43.594;24.334;2024-02-14T06:31:03;101287.28;;;6.08;100.00
57600;BME280;43426;43.594;24.334;2024-02-14T06:33:28;101274.53;;;6.00;100.00
57600;BME280;43426;43.594;24.334;2024-02-14T06:35:54;101248.72;;;5.88;100.00
57600;BME280;43426;43.594;24.334;2024-02-14T06:38:19;101295.78;;;6.13;100.00
57600;BME280;43426;43.594;24.334;2024-02-14T06:40:45;101271.91;;;6.10;100.00
57600;BME280;43426;43.594;24.334;2024-02-14T06:43:11;101308.69;;;6.40;100.00
57600;BME280;43426;43.594;24.334;2024-02-14T06:45:37;101284.22;;;6.34;100.00
57600;BME280;43426;43.594;24.334;2024-02-14T06:48:04;101239.13;;;6.18;100.00
57600;BME280;43426;43.594;24.334;2024-02-14T06:50:29;101281.88;;;6.40;100.00
57600;BME280;43426;43.594;24.334;2024-02-14T06:52:55;101284.69;;;6.39;100.00
57600;BME280;43426;43.594;24.334;2024-02-14T06:55:25;101257.81;;;6.29;100.00
57600;BME280;43426;43.594;24.334;2024-02-14T06:57:51;101309.66;;;6.60;100.00
57600;BME280;43426;43.594;24.334;2024-02-14T07:00:16;101314.84;;;6.73;100.00
57600;BME280;43426;43.594;24.334;2024-02-14T07:02:42;101321.91;;;6.74;100.00
57600;BME280;43426;43.594;24.334;2024-02-14T07:05:08;101328.44;;;6.81;100.00
57600;BME280;43426;43.594;24.334;2024-02-14T07:07:38;101325.16;;;6.78;100.00
57600;BME280;43426;43.594;24.334;2024-02-14T07:10:04;101281.72;;;6.63;100.00
57600;BME280;43426;43.594;24.334;2024-02-14T07:12:31;101332.75;;;6.94;100.00
57600;BME280;43426;43.594;24.334;2024-02-14T07:14:57;101312.47;;;6.80;100.00
57600;BME280;43426;43.594;24.334;2024-02-14T07:17:23;101318.56;;;6.82;100.00
57600;BME280;43426;43.594;24.334;2024-02-14T07:19:48;101285.97;;;6.65;100.00
57600;BME280;43426;43.594;24.334;2024-02-14T07:22:15;101314.44;;;6.78;100.00
57600;BME280;43426;43.594;24.334;2024-02-14T07:24:41;101344.03;;;6.97;100.00
57600;BME280;43426;43.594;24.334;2024-02-14T07:27:07;101332.44;;;6.87;100.00
57600;BME280;43426;43.594;24.334;2024-02-14T07:29:33;101346.59;;;6.99;100.00
57600;BME280;43426;43.594;24.334;2024-02-14T07:32:02;101330.19;;;6.92;100.00
57600;BME280;43426;43.594;24.334;2024-02-14T07:34:27;101345.22;;;7.05;100.00
57600;BME280;43426;43.594;24.334;2024-02-14T07:36:53;101369.03;;;7.19;100.00
57600;BME280;43426;43.594;24.334;2024-02-14T07:39:18;101337.34;;;7.13;100.00
57600;BME280;43426;43.594;24.334;2024-02-14T07:41:44;101350.44;;;7.27;100.00
57600;BME280;43426;43.594;24.334;2024-02-14T07:44:10;101337.53;;;7.21;100.00
57600;BME280;43426;43.594;24.334;2024-02-14T07:46:35;101365.56;;;7.28;100.00
57600;BME280;43426;43.594;24.334;2024-02-14T07:49:01;101362.59;;;7.31;100.00
57600;BME280;43426;43.594;24.334;2024-02-14T07:51:26;101361.50;;;7.13;100.00
57600;BME280;43426;43.594;24.334;2024-02-14T07:53:54;101370.97;;;7.17;100.00
57600;BME280;43426;43.594;24.334;2024-02-14T07:56:19;101376.94;;;7.21;100.00
57600;BME280;43426;43.594;24.334;2024-02-14T07:58:45;101361.06;;;7.08;100.00
57600;BME280;43426;43.594;24.334;2024-02-14T08:01:11;101366.03;;;7.12;100.00
57600;BME280;43426;43.594;24.334;2024-02-14T08:03:36;101368.66;;;7.03;100.00
57600;BME280;43426;43.594;24.334;2024-02-14T08:06:02;101387.09;;;7.17;100.00
57600;BME280;43426;43.594;24.334;2024-02-14T08:08:27;101359.56;;;6.94;100.00
57600;BME280;43426;43.594;24.334;2024-02-14T08:10:53;101388.88;;;7.07;100.00
57600;BME280;43426;43.594;24.334;2024-02-14T08:13:19;101402.94;;;7.20;100.00
57600;BME280;43426;43.594;24.334;2024-02-14T08:15:45;101355.06;;;6.94;100.00
57600;BME280;43426;43.594;24.334;2024-02-14T08:18:11;101385.22;;;7.08;100.00
57600;BME280;43426;43.594;24.334;2024-02-14T08:20:38;101398.81;;;7.16;100.00
57600;BME280;43426;43.594;24.334;2024-02-14T08:23:03;101370.75;;;6.99;100.00
57600;BME280;43426;43.594;24.334;2024-02-14T08:25:29;101379.53;;;7.01;100.00
57600;BME280;43426;43.594;24.334;2024-02-14T08:27:56;101376.56;;;7.04;100.00
57600;BME280;43426;43.594;24.334;2024-02-14T08:30:21;101401.25;;;7.19;100.00
57600;BME280;43426;43.594;24.334;2024-02-14T08:32:47;101362.13;;;6.95;100.00
57600;BME280;43426;43.594;24.334;2024-02-14T08:35:12;101400.25;;;7.20;100.00
57600;BME280;43426;43.594;24.334;2024-02-14T08:37:39;101403.78;;;7.21;100.00
57600;BME280;43426;43.594;24.334;2024-02-14T08:40:06;101406.34;;;7.22;100.00
57600;BME280;43426;43.594;24.334;2024-02-14T08:42:33;101417.44;;;7.39;100.00
57600;BME280;43426;43.594;24.334;2024-02-14T08:44:59;101416.16;;;7.33;100.00
57600;BME280;43426;43.594;24.334;2024-02-14T08:47:25;101421.38;;;7.35;100.00
57600;BME280;43426;43.594;24.334;2024-02-14T08:49:50;101407.13;;;7.34;100.00
57600;BME280;43426;43.594;24.334;2024-02-14T08:52:16;101401.19;;;7.40;100.00
57600;BME280;43426;43.594;24.334;2024-02-14T08:54:42;101382.13;;;7.12;100.00
57600;BME280;43426;43.594;24.334;2024-02-14T08:57:07;101411.88;;;7.30;100.00
57600;BME280;43426;43.594;24.334;2024-02-14T08:59:33;101445.91;;;7.51;100.00
57600;BME280;43426;43.594;24.334;2024-02-14T09:01:59;101441.16;;;7.33;100.00
57600;BME280;43426;43.594;24.334;2024-02-14T09:04:24;101442.34;;;7.41;100.00
57600;BME280;43426;43.594;24.334;2024-02-14T09:06:50;101439.81;;;7.49;100.00
57600;BME280;43426;43.594;24.334;2024-02-14T09:09:15;101440.13;;;7.56;100.00
57600;BME280;43426;43.594;24.334;2024-02-14T09:11:41;101442.03;;;7.65;100.00
57600;BME280;43426;43.594;24.334;2024-02-14T09:14:07;101426.03;;;7.63;100.00
57600;BME280;43426;43.594;24.334;2024-02-14T09:16:33;101436.84;;;7.83;100.00
57600;BME280;43426;43.594;24.334;2024-02-14T09:18:59;101456.13;;;7.88;100.00
57600;BME280;43426;43.594;24.334;2024-02-14T09:21:24;101433.19;;;7.84;100.00
57600;BME280;43426;43.594;24.334;2024-02-14T09:23:50;101425.84;;;7.86;100.00
57600;BME280;43426;43.594;24.334;2024-02-14T09:26:17;101422.84;;;7.79;100.00
57600;BME280;43426;43.594;24.334;2024-02-14T09:28:43;101448.78;;;8.00;100.00
57600;BME280;43426;43.594;24.334;2024-02-14T09:31:08;101449.59;;;8.31;100.00
57600;BME280;43426;43.594;24.334;2024-02-14T09:33:37;101449.72;;;8.30;100.00
57600;BME280;43426;43.594;24.334;2024-02-14T09:36:02;101457.34;;;8.25;100.00
57600;BME280;43426;43.594;24.334;2024-02-14T09:38:29;101449.28;;;8.25;100.00
57600;BME280;43426;43.594;24.334;2024-02-14T09:40:59;101460.94;;;8.35;100.00
57600;BME280;43426;43.594;24.334;2024-02-14T09:43:35;101430.44;;;8.15;100.00
57600;BME280;43426;43.594;24.334;2024-02-14T09:46:03;101394.34;;;7.98;100.00
57600;BME280;43426;43.594;24.334;2024-02-14T09:48:30;101449.44;;;8.33;100.00
57600;BME280;43426;43.594;24.334;2024-02-14T09:50:56;101425.38;;;8.22;100.00
57600;BME280;43426;43.594;24.334;2024-02-14T09:53:23;101450.63;;;8.50;100.00
57600;BME280;43426;43.594;24.334;2024-02-14T09:55:49;101447.81;;;8.51;100.00
57600;BME280;43426;43.594;24.334;2024-02-14T09:58:15;101413.78;;;8.41;100.00
57600;BME280;43426;43.594;24.334;2024-02-14T10:00:41;101417.66;;;8.48;100.00
57600;BME280;43426;43.594;24.334;2024-02-14T10:03:08;101434.09;;;8.74;100.00
57600;BME280;43426;43.594;24.334;2024-02-14T10:05:33;101414.22;;;8.46;100.00
57600;BME280;43426;43.594;24.334;2024-02-14T10:07:59;101416.66;;;8.49;100.00
57600;BME280;43426;43.594;24.334;2024-02-14T10:10:26;101446.97;;;8.71;100.00
57600;BME280;43426;43.594;24.334;2024-02-14T10:12:54;101409.59;;;8.48;100.00
57600;BME280;43426;43.594;24.334;2024-02-14T10:15:20;101424.59;;;8.50;100.00
57600;BME280;43426;43.594;24.334;2024-02-14T10:17:45;101423.72;;;8.50;100.00
57600;BME280;43426;43.594;24.334;2024-02-14T10:20:16;101430.25;;;8.57;100.00
57600;BME280;43426;43.594;24.334;2024-02-14T10:22:41;101405.34;;;8.45;100.00
57600;BME280;43426;43.594;24.334;2024-02-14T10:25:07;101400.78;;;8.46;100.00
57600;BME280;43426;43.594;24.334;2024-02-14T10:27:35;101425.88;;;8.66;100.00
57600;BME280;43426;43.594;24.334;2024-02-14T10:30:12;101395.22;;;8.38;100.00
57600;BME280;43426;43.594;24.334;2024-02-14T10:32:39;101425.44;;;8.51;100.00
57600;BME280;43426;43.594;24.334;2024-02-14T10:35:14;101407.41;;;8.42;100.00
57600;BME280;43426;43.594;24.334;2024-02-14T10:37:40;101409.72;;;8.46;100.00
57600;BME280;43426;43.594;24.334;2024-02-14T10:40:07;101392.84;;;8.44;100.00
57600;BME280;43426;43.594;24.334;2024-02-14T10:42:34;101397.84;;;8.59;100.00
57600;BME280;43426;43.594;24.334;2024-02-14T10:45:01;101399.25;;;8.53;100.00
57600;BME280;43426;43.594;24.334;2024-02-14T10:47:32;101414.97;;;8.67;100.00
57600;BME280;43426;43.594;24.334;2024-02-14T10:50:05;101396.13;;;8.67;100.00
57600;BME280;43426;43.594;24.334;2024-02-14T10:52:35;101401.94;;;8.63;100.00
57600;BME280;43426;43.594;24.334;2024-02-14T10:55:05;101404.19;;;8.67;100.00
57600;BME280;43426;43.594;24.334;2024-02-14T10:57:33;101375.06;;;8.53;100.00
57600;BME280;43426;43.594;24.334;2024-02-14T11:00:02;101357.03;;;8.44;100.00
57600;BME280;43426;43.594;24.334;2024-02-14T11:02:28;101390.56;;;8.89;100.00
57600;BME280;43426;43.594;24.334;2024-02-14T11:04:56;101389.41;;;9.01;100.00
57600;BME280;43426;43.594;24.334;2024-02-14T11:07:22;101390.56;;;8.89;100.00
57600;BME280;43426;43.594;24.334;2024-02-14T11:10:06;101393.13;;;8.90;99.86
57600;BME280;43426;43.594;24.334;2024-02-14T11:12:36;101367.81;;;8.73;100.00
57600;BME280;43426;43.594;24.334;2024-02-14T11:15:18;101396.81;;;8.99;100.00
57600;BME280;43426;43.594;24.334;2024-02-14T11:17:44;101400.47;;;9.08;100.00
57600;BME280;43426;43.594;24.334;2024-02-14T11:20:20;101392.81;;;9.13;100.00
57600;BME280;43426;43.594;24.334;2024-02-14T11:22:54;101372.56;;;9.09;100.00
57600;BME280;43426;43.594;24.334;2024-02-14T11:25:29;101401.38;;;9.46;100.00
57600;BME280;43426;43.594;24.334;2024-02-14T11:27:55;101374.31;;;9.37;100.00
57600;BME280;43426;43.594;24.334;2024-02-14T11:30:31;101405.56;;;9.58;98.68
57600;BME280;43426;43.594;24.334;2024-02-14T11:33:16;101396.88;;;9.64;97.65
57600;BME280;43426;43.594;24.334;2024-02-14T11:35:44;101390.50;;;9.65;96.40
57600;BME280;43426;43.594;24.334;2024-02-14T11:38:10;101364.19;;;9.49;97.38
57600;BME280;43426;43.594;24.334;2024-02-14T11:40:37;101396.28;;;9.70;97.18
57600;BME280;43426;43.594;24.334;2024-02-14T11:43:16;101396.31;;;9.61;98.82
57600;BME280;43426;43.594;24.334;2024-02-14T11:45:48;101385.00;;;9.57;95.74
57600;BME280;43426;43.594;24.334;2024-02-14T11:48:18;101400.34;;;9.47;91.95
57600;BME280;43426;43.594;24.334;2024-02-14T11:50:48;101377.63;;;9.22;93.12
57600;BME280;43426;43.594;24.334;2024-02-14T11:53:15;101400.69;;;9.34;96.70
57600;BME280;43426;43.594;24.334;2024-02-14T11:55:44;101395.16;;;9.35;96.37
57600;BME280;43426;43.594;24.334;2024-02-14T11:58:13;101402.16;;;9.56;95.73
57600;BME280;43426;43.594;24.334;2024-02-14T12:00:46;101394.94;;;9.47;94.13
57600;BME280;43426;43.594;24.334;2024-02-14T12:03:24;101400.75;;;9.52;93.07
57600;BME280;43426;43.594;24.334;2024-02-14T12:05:51;101374.47;;;9.26;90.91
57600;BME280;43426;43.594;24.334;2024-02-14T12:08:18;101390.22;;;9.31;93.87
57600;BME280;43426;43.594;24.334;2024-02-14T12:10:44;101399.84;;;9.33;93.78
57600;BME280;43426;43.594;24.334;2024-02-14T12:13:15;101403.09;;;9.27;93.51
57600;BME280;43426;43.594;24.334;2024-02-14T12:15:44;101365.63;;;9.06;97.35
57600;BME280;43426;43.594;24.334;2024-02-14T12:18:11;101367.59;;;9.14;96.19
57600;BME280;43426;43.594;24.334;2024-02-14T12:20:39;101399.84;;;9.33;95.25
57600;BME280;43426;43.594;24.334;2024-02-14T12:23:06;101382.84;;;9.23;93.76
57600;BME280;43426;43.594;24.334;2024-02-14T12:25:32;101376.66;;;9.13;96.50
57600;BME280;43426;43.594;24.334;2024-02-14T12:27:58;101379.78;;;9.18;94.85
57600;BME280;43426;43.594;24.334;2024-02-14T12:30:46;101394.34;;;9.25;93.60
57600;BME280;43426;43.594;24.334;2024-02-14T12:33:15;101375.25;;;9.09;93.78
57600;BME280;43426;43.594;24.334;2024-02-14T12:35:42;101386.00;;;9.18;95.67
57600;BME280;43426;43.594;24.334;2024-02-14T12:38:09;101364.78;;;9.06;93.32